sensor_id;sensor_type;location;lat;lon;timestamp;P1;durP1;ratioP1;P2;durP2;ratioP2
72404;SDS011;60395;52.020;113.548;2022-08-04T00:01:40;8.43;;;6.18;;
72404;SDS011;60395;52.020;113.548;2022-08-04T00:04:52;9.60;;;6.95;;
72404;SDS011;60395;52.020;113.548;2022-08-04T00:08:21;7.82;;;6.00;;
72404;SDS011;60395;52.020;113.548;2022-08-04T00:11:29;9.23;;;6.78;;
72404;SDS011;60395;52.020;113.548;2022-08-04T00:14:33;9.95;;;6.95;;
72404;SDS011;60395;52.020;113.548;2022-08-04T00:17:41;10.68;;;6.93;;
72404;SDS011;60395;52.020;113.548;2022-08-04T00:20:48;7.93;;;4.95;;
72404;SDS011;60395;52.020;113.548;2022-08-04T00:23:54;7.38;;;5.35;;
72404;SDS011;60395;52.020;113.548;2022-08-04T00:27:13;8.82;;;5.60;;
72404;SDS011;60395;52.020;113.548;2022-08-04T00:30:17;6.75;;;5.43;;
72404;SDS011;60395;52.020;113.548;2022-08-04T00:33:21;6.85;;;5.80;;
72404;SDS011;60395;52.020;113.548;2022-08-04T00:36:24;8.95;;;6.13;;
72404;SDS011;60395;52.020;113.548;2022-08-04T00:39:29;6.18;;;5.10;;
72404;SDS011;60395;52.020;113.548;2022-08-04T00:42:36;8.93;;;5.57;;
72404;SDS011;60395;52.020;113.548;2022-08-04T00:46:14;6.95;;;4.68;;
72404;SDS011;60395;52.020;113.548;2022-08-04T00:56:28;11.23;;;7.28;;
72404;SDS011;60395;52.020;113.548;2022-08-04T01:00:03;7.20;;;4.90;;
72404;SDS011;60395;52.020;113.548;2022-08-04T01:03:17;9.88;;;6.47;;
72404;SDS011;60395;52.020;113.548;2022-08-04T01:20:08;10.68;;;6.70;;
72404;SDS011;60395;52.020;113.548;2022-08-04T01:26:56;11.85;;;7.50;;
72404;SDS011;60395;52.020;113.548;2022-08-04T01:30:09;15.40;;;7.90;;
72404;SDS011;60395;52.020;113.548;2022-08-04T01:33:14;12.40;;;7.18;;
72404;SDS011;60395;52.020;113.548;2022-08-04T01:36:26;16.02;;;6.88;;
72404;SDS011;60395;52.020;113.548;2022-08-04T01:39:33;8.15;;;5.80;;
72404;SDS011;60395;52.020;113.548;2022-08-04T01:42:44;8.75;;;6.25;;
72404;SDS011;60395;52.020;113.548;2022-08-04T01:45:56;11.32;;;6.07;;
72404;SDS011;60395;52.020;113.548;2022-08-04T01:49:01;11.65;;;6.30;;
72404;SDS011;60395;52.020;113.548;2022-08-04T01:52:08;12.30;;;6.50;;
72404;SDS011;60395;52.020;113.548;2022-08-04T01:55:13;10.23;;;6.72;;
72404;SDS011;60395;52.020;113.548;2022-08-04T01:58:18;14.07;;;7.47;;
72404;SDS011;60395;52.020;113.548;2022-08-04T02:01:22;13.40;;;7.40;;
72404;SDS011;60395;52.020;113.548;2022-08-04T02:04:25;18.95;;;8.48;;
72404;SDS011;60395;52.020;113.548;2022-08-04T02:17:56;14.68;;;7.95;;
72404;SDS011;60395;52.020;113.548;2022-08-04T02:21:01;12.70;;;7.47;;
72404;SDS011;60395;52.020;113.548;2022-08-04T02:24:06;14.27;;;7.65;;
72404;SDS011;60395;52.020;113.548;2022-08-04T02:27:14;14.65;;;8.73;;
72404;SDS011;60395;52.020;113.548;2022-08-04T02:30:26;14.80;;;7.82;;
72404;SDS011;60395;52.020;113.548;2022-08-04T02:33:36;9.43;;;7.20;;
72404;SDS011;60395;52.020;113.548;2022-08-04T02:36:42;10.48;;;6.85;;
72404;SDS011;60395;52.020;113.548;2022-08-04T02:39:45;9.32;;;6.82;;
72404;SDS011;60395;52.020;113.548;2022-08-04T02:42:54;8.88;;;7.55;;
72404;SDS011;60395;52.020;113.548;2022-08-04T02:46:00;9.85;;;7.80;;
72404;SDS011;60395;52.020;113.548;2022-08-04T02:49:20;11.77;;;5.95;;
72404;SDS011;60395;52.020;113.548;2022-08-04T02:52:24;9.82;;;6.55;;
72404;SDS011;60395;52.020;113.548;2022-08-04T02:55:28;10.93;;;6.53;;
72404;SDS011;60395;52.020;113.548;2022-08-04T02:58:34;8.80;;;5.97;;
72404;SDS011;60395;52.020;113.548;2022-08-04T03:01:38;8.43;;;6.20;;
72404;SDS011;60395;52.020;113.548;2022-08-04T03:05:02;10.13;;;6.72;;
72404;SDS011;60395;52.020;113.548;2022-08-04T03:12:02;11.90;;;7.20;;
72404;SDS011;60395;52.020;113.548;2022-08-04T03:45:55;8.20;;;5.25;;
72404;SDS011;60395;52.020;113.548;2022-08-04T03:59:39;7.88;;;5.55;;
72404;SDS011;60395;52.020;113.548;2022-08-04T04:03:00;8.90;;;5.38;;
72404;SDS011;60395;52.020;113.548;2022-08-04T04:09:45;6.43;;;5.50;;
72404;SDS011;60395;52.020;113.548;2022-08-04T04:13:33;8.57;;;6.30;;
72404;SDS011;60395;52.020;113.548;2022-08-04T04:16:48;7.93;;;6.10;;
72404;SDS011;60395;52.020;113.548;2022-08-04T04:30:38;8.40;;;5.10;;
72404;SDS011;60395;52.020;113.548;2022-08-04T04:37:16;5.80;;;4.50;;
72404;SDS011;60395;52.020;113.548;2022-08-04T04:48:06;4.82;;;4.35;;
72404;SDS011;60395;52.020;113.548;2022-08-04T04:51:21;6.88;;;4.40;;
72404;SDS011;60395;52.020;113.548;2022-08-04T04:54:32;7.03;;;4.53;;
72404;SDS011;60395;52.020;113.548;2022-08-04T04:57:40;4.60;;;4.10;;
72404;SDS011;60395;52.020;113.548;2022-08-04T05:04:37;5.47;;;4.07;;
72404;SDS011;60395;52.020;113.548;2022-08-04T05:11:52;5.88;;;4.22;;
72404;SDS011;60395;52.020;113.548;2022-08-04T05:15:36;6.30;;;3.90;;
72404;SDS011;60395;52.020;113.548;2022-08-04T05:18:46;7.32;;;4.05;;
72404;SDS011;60395;52.020;113.548;2022-08-04T05:25:33;6.70;;;4.72;;
72404;SDS011;60395;52.020;113.548;2022-08-04T05:31:48;5.25;;;3.90;;
72404;SDS011;60395;52.020;113.548;2022-08-04T05:35:04;6.57;;;4.07;;
72404;SDS011;60395;52.020;113.548;2022-08-04T05:38:13;6.20;;;4.35;;
72404;SDS011;60395;52.020;113.548;2022-08-04T05:41:20;5.05;;;4.10;;
72404;SDS011;60395;52.020;113.548;2022-08-04T05:44:33;3.95;;;3.53;;
72404;SDS011;60395;52.020;113.548;2022-08-04T05:47:37;5.03;;;3.65;;
72404;SDS011;60395;52.020;113.548;2022-08-04T05:50:40;5.25;;;3.30;;
72404;SDS011;60395;52.020;113.548;2022-08-04T05:53:45;7.40;;;4.53;;
72404;SDS011;60395;52.020;113.548;2022-08-04T05:56:48;5.83;;;3.50;;
72404;SDS011;60395;52.020;113.548;2022-08-04T05:59:52;5.68;;;3.50;;
72404;SDS011;60395;52.020;113.548;2022-08-04T06:02:58;5.07;;;3.60;;
72404;SDS011;60395;52.020;113.548;2022-08-04T06:06:03;3.85;;;3.28;;
72404;SDS011;60395;52.020;113.548;2022-08-04T06:09:08;6.53;;;3.50;;
72404;SDS011;60395;52.020;113.548;2022-08-04T06:12:23;6.95;;;3.55;;
72404;SDS011;60395;52.020;113.548;2022-08-04T06:15:28;5.13;;;3.90;;
72404;SDS011;60395;52.020;113.548;2022-08-04T06:18:33;6.88;;;4.30;;
72404;SDS011;60395;52.020;113.548;2022-08-04T06:25:04;5.10;;;3.10;;
72404;SDS011;60395;52.020;113.548;2022-08-04T06:28:08;4.32;;;3.10;;
72404;SDS011;60395;52.020;113.548;2022-08-04T06:34:43;3.58;;;2.80;;
72404;SDS011;60395;52.020;113.548;2022-08-04T06:37:47;3.72;;;2.75;;
72404;SDS011;60395;52.020;113.548;2022-08-04T06:40:50;3.85;;;3.00;;
72404;SDS011;60395;52.020;113.548;2022-08-04T06:43:59;5.53;;;2.70;;
72404;SDS011;60395;52.020;113.548;2022-08-04T06:47:04;4.00;;;2.70;;
72404;SDS011;60395;52.020;113.548;2022-08-04T06:50:14;5.53;;;3.10;;
72404;SDS011;60395;52.020;113.548;2022-08-04T06:53:38;3.88;;;2.80;;
72404;SDS011;60395;52.020;113.548;2022-08-04T06:56:42;4.55;;;3.10;;
72404;SDS011;60395;52.020;113.548;2022-08-04T06:59:48;3.80;;;3.30;;
72404;SDS011;60395;52.020;113.548;2022-08-04T07:02:55;4.55;;;3.10;;
72404;SDS011;60395;52.020;113.548;2022-08-04T07:05:59;4.40;;;2.78;;
72404;SDS011;60395;52.020;113.548;2022-08-04T07:09:07;3.95;;;2.67;;
72404;SDS011;60395;52.020;113.548;2022-08-04T07:12:10;4.93;;;3.72;;
72404;SDS011;60395;52.020;113.548;2022-08-04T07:15:14;5.35;;;2.97;;
72404;SDS011;60395;52.020;113.548;2022-08-04T07:18:19;9.90;;;2.90;;
72404;SDS011;60395;52.020;113.548;2022-08-04T07:21:22;4.50;;;2.85;;
72404;SDS011;60395;52.020;113.548;2022-08-04T07:24:31;5.85;;;3.10;;
72404;SDS011;60395;52.020;113.548;2022-08-04T07:27:36;4.15;;;2.97;;
72404;SDS011;60395;52.020;113.548;2022-08-04T07:30:49;5.45;;;2.75;;
72404;SDS011;60395;52.020;113.548;2022-08-04T07:33:54;5.70;;;3.10;;
72404;SDS011;60395;52.020;113.548;2022-08-04T07:37:17;4.80;;;3.20;;
72404;SDS011;60395;52.020;113.548;2022-08-04T07:40:21;4.13;;;2.83;;
72404;SDS011;60395;52.020;113.548;2022-08-04T07:43:24;4.93;;;2.80;;
72404;SDS011;60395;52.020;113.548;2022-08-04T07:46:28;3.15;;;2.42;;
72404;SDS011;60395;52.020;113.548;2022-08-04T07:49:32;3.55;;;2.25;;
72404;SDS011;60395;52.020;113.548;2022-08-04T07:52:56;3.35;;;2.40;;
72404;SDS011;60395;52.020;113.548;2022-08-04T07:56:20;3.83;;;2.30;;
72404;SDS011;60395;52.020;113.548;2022-08-04T07:59:23;3.20;;;2.72;;
72404;SDS011;60395;52.020;113.548;2022-08-04T08:02:27;4.07;;;2.23;;
72404;SDS011;60395;52.020;113.548;2022-08-04T08:05:30;2.15;;;1.80;;
72404;SDS011;60395;52.020;113.548;2022-08-04T08:08:38;3.85;;;2.40;;
72404;SDS011;60395;52.020;113.548;2022-08-04T08:11:42;2.58;;;2.30;;
72404;SDS011;60395;52.020;113.548;2022-08-04T08:15:08;2.95;;;2.15;;
72404;SDS011;60395;52.020;113.548;2022-08-04T08:18:16;2.45;;;2.10;;
72404;SDS011;60395;52.020;113.548;2022-08-04T08:21:19;2.78;;;2.25;;
72404;SDS011;60395;52.020;113.548;2022-08-04T08:24:23;4.53;;;2.10;;
72404;SDS011;60395;52.020;113.548;2022-08-04T08:27:26;2.45;;;2.25;;
72404;SDS011;60395;52.020;113.548;2022-08-04T08:30:30;3.50;;;2.25;;
72404;SDS011;60395;52.020;113.548;2022-08-04T08:33:34;2.42;;;2.03;;
72404;SDS011;60395;52.020;113.548;2022-08-04T08:36:40;4.30;;;2.10;;
72404;SDS011;60395;52.020;113.548;2022-08-04T08:43:53;3.33;;;2.00;;
72404;SDS011;60395;52.020;113.548;2022-08-04T08:54:55;3.47;;;2.20;;
72404;SDS011;60395;52.020;113.548;2022-08-04T08:58:21;5.30;;;2.20;;
72404;SDS011;60395;52.020;113.548;2022-08-04T09:04:51;2.00;;;1.70;;
72404;SDS011;60395;52.020;113.548;2022-08-04T09:11:19;4.75;;;2.00;;
72404;SDS011;60395;52.020;113.548;2022-08-04T09:18:32;3.22;;;2.60;;
72404;SDS011;60395;52.020;113.548;2022-08-04T09:25:48;1.83;;;1.60;;
72404;SDS011;60395;52.020;113.548;2022-08-04T09:39:39;3.05;;;1.83;;
72404;SDS011;60395;52.020;113.548;2022-08-04T09:49:17;5.88;;;2.22;;
72404;SDS011;60395;52.020;113.548;2022-08-04T09:55:37;7.93;;;3.28;;
72404;SDS011;60395;52.020;113.548;2022-08-04T10:02:33;5.72;;;2.85;;
72404;SDS011;60395;52.020;113.548;2022-08-04T10:31:00;23.70;;;12.30;;
72404;SDS011;60395;52.020;113.548;2022-08-04T10:34:27;8.75;;;4.50;;
72404;SDS011;60395;52.020;113.548;2022-08-04T10:37:35;9.65;;;6.35;;
72404;SDS011;60395;52.020;113.548;2022-08-04T10:41:10;5.65;;;2.67;;
72404;SDS011;60395;52.020;113.548;2022-08-04T10:44:31;8.27;;;3.78;;
72404;SDS011;60395;52.020;113.548;2022-08-04T10:48:01;9.30;;;5.50;;
72404;SDS011;60395;52.020;113.548;2022-08-04T10:51:20;7.45;;;4.97;;
72404;SDS011;60395;52.020;113.548;2022-08-04T10:54:42;7.25;;;3.95;;
72404;SDS011;60395;52.020;113.548;2022-08-04T10:58:06;11.95;;;6.75;;
72404;SDS011;60395;52.020;113.548;2022-08-04T11:01:22;9.23;;;5.65;;
72404;SDS011;60395;52.020;113.548;2022-08-04T11:04:52;6.88;;;4.47;;
72404;SDS011;60395;52.020;113.548;2022-08-04T11:08:03;12.70;;;4.75;;
72404;SDS011;60395;52.020;113.548;2022-08-04T11:11:25;9.43;;;4.78;;
72404;SDS011;60395;52.020;113.548;2022-08-04T11:14:55;9.20;;;5.20;;
72404;SDS011;60395;52.020;113.548;2022-08-04T11:18:05;11.82;;;5.90;;
72404;SDS011;60395;52.020;113.548;2022-08-04T11:21:21;14.07;;;4.38;;
72404;SDS011;60395;52.020;113.548;2022-08-04T11:24:34;12.52;;;4.78;;
72404;SDS011;60395;52.020;113.548;2022-08-04T11:31:09;8.38;;;3.67;;
72404;SDS011;60395;52.020;113.548;2022-08-04T11:37:28;10.90;;;4.97;;
72404;SDS011;60395;52.020;113.548;2022-08-04T11:40:53;14.30;;;3.47;;
72404;SDS011;60395;52.020;113.548;2022-08-04T11:44:04;20.88;;;5.78;;
72404;SDS011;60395;52.020;113.548;2022-08-04T11:47:18;12.38;;;5.00;;
72404;SDS011;60395;52.020;113.548;2022-08-04T11:50:26;11.77;;;5.13;;
72404;SDS011;60395;52.020;113.548;2022-08-04T11:53:36;9.63;;;4.47;;
72404;SDS011;60395;52.020;113.548;2022-08-04T11:56:41;18.55;;;6.20;;
72404;SDS011;60395;52.020;113.548;2022-08-04T11:59:44;20.65;;;6.97;;
72404;SDS011;60395;52.020;113.548;2022-08-04T12:02:57;15.48;;;5.97;;
72404;SDS011;60395;52.020;113.548;2022-08-04T12:06:12;14.60;;;4.82;;
72404;SDS011;60395;52.020;113.548;2022-08-04T12:12:34;10.25;;;4.03;;
72404;SDS011;60395;52.020;113.548;2022-08-04T12:15:46;9.23;;;3.55;;
72404;SDS011;60395;52.020;113.548;2022-08-04T12:18:58;7.60;;;3.80;;
72404;SDS011;60395;52.020;113.548;2022-08-04T12:22:08;8.30;;;4.68;;
72404;SDS011;60395;52.020;113.548;2022-08-04T12:25:20;10.90;;;4.32;;
72404;SDS011;60395;52.020;113.548;2022-08-04T12:28:31;8.00;;;4.88;;
72404;SDS011;60395;52.020;113.548;2022-08-04T12:32:03;7.53;;;4.28;;
72404;SDS011;60395;52.020;113.548;2022-08-04T12:35:19;14.07;;;4.43;;
72404;SDS011;60395;52.020;113.548;2022-08-04T12:38:25;10.75;;;4.80;;
72404;SDS011;60395;52.020;113.548;2022-08-04T12:41:38;8.32;;;3.65;;
72404;SDS011;60395;52.020;113.548;2022-08-04T12:44:46;5.45;;;3.67;;
72404;SDS011;60395;52.020;113.548;2022-08-04T12:47:56;9.02;;;4.00;;
72404;SDS011;60395;52.020;113.548;2022-08-04T12:51:00;7.90;;;4.10;;
72404;SDS011;60395;52.020;113.548;2022-08-04T12:54:05;8.23;;;3.85;;
72404;SDS011;60395;52.020;113.548;2022-08-04T12:57:09;17.73;;;5.00;;
72404;SDS011;60395;52.020;113.548;2022-08-04T13:00:24;10.52;;;4.50;;
72404;SDS011;60395;52.020;113.548;2022-08-04T13:03:43;11.05;;;3.67;;
72404;SDS011;60395;52.020;113.548;2022-08-04T13:07:14;8.75;;;6.00;;
72404;SDS011;60395;52.020;113.548;2022-08-04T13:13:32;12.50;;;4.80;;
72404;SDS011;60395;52.020;113.548;2022-08-04T13:16:37;7.43;;;3.88;;
72404;SDS011;60395;52.020;113.548;2022-08-04T13:19:47;9.32;;;5.20;;
72404;SDS011;60395;52.020;113.548;2022-08-04T13:22:58;11.00;;;4.93;;
72404;SDS011;60395;52.020;113.548;2022-08-04T13:26:05;11.05;;;4.28;;
72404;SDS011;60395;52.020;113.548;2022-08-04T13:29:36;7.27;;;3.80;;
72404;SDS011;60395;52.020;113.548;2022-08-04T13:33:02;7.55;;;4.68;;
72404;SDS011;60395;52.020;113.548;2022-08-04T13:36:07;11.40;;;4.05;;
72404;SDS011;60395;52.020;113.548;2022-08-04T13:39:15;14.43;;;3.47;;
72404;SDS011;60395;52.020;113.548;2022-08-04T13:42:20;15.00;;;8.77;;
72404;SDS011;60395;52.020;113.548;2022-08-04T13:45:25;6.82;;;4.05;;
72404;SDS011;60395;52.020;113.548;2022-08-04T13:48:36;8.23;;;4.18;;
72404;SDS011;60395;52.020;113.548;2022-08-04T13:51:40;7.57;;;4.40;;
72404;SDS011;60395;52.020;113.548;2022-08-04T13:55:00;7.45;;;3.97;;
72404;SDS011;60395;52.020;113.548;2022-08-04T13:58:08;9.52;;;3.20;;
72404;SDS011;60395;52.020;113.548;2022-08-04T14:04:40;5.90;;;3.45;;
72404;SDS011;60395;52.020;113.548;2022-08-04T14:07:45;7.13;;;3.80;;
72404;SDS011;60395;52.020;113.548;2022-08-04T14:10:55;8.73;;;5.43;;
72404;SDS011;60395;52.020;113.548;2022-08-04T14:13:59;7.60;;;4.22;;
72404;SDS011;60395;52.020;113.548;2022-08-04T14:20:21;6.22;;;3.30;;
72404;SDS011;60395;52.020;113.548;2022-08-04T14:23:25;8.82;;;3.35;;
72404;SDS011;60395;52.020;113.548;2022-08-04T14:26:34;3.63;;;2.90;;
72404;SDS011;60395;52.020;113.548;2022-08-04T14:29:38;12.32;;;3.53;;
72404;SDS011;60395;52.020;113.548;2022-08-04T14:32:59;7.18;;;3.00;;
72404;SDS011;60395;52.020;113.548;2022-08-04T14:36:23;5.38;;;3.00;;
72404;SDS011;60395;52.020;113.548;2022-08-04T14:39:39;5.60;;;3.10;;
72404;SDS011;60395;52.020;113.548;2022-08-04T14:43:04;9.13;;;5.32;;
72404;SDS011;60395;52.020;113.548;2022-08-04T14:46:10;6.38;;;4.35;;
72404;SDS011;60395;52.020;113.548;2022-08-04T14:49:14;9.07;;;4.75;;
72404;SDS011;60395;52.020;113.548;2022-08-04T14:52:23;9.23;;;5.15;;
72404;SDS011;60395;52.020;113.548;2022-08-04T14:55:27;5.60;;;3.10;;
72404;SDS011;60395;52.020;113.548;2022-08-04T14:58:33;5.72;;;3.20;;
72404;SDS011;60395;52.020;113.548;2022-08-04T15:01:40;8.52;;;3.10;;
72404;SDS011;60395;52.020;113.548;2022-08-04T15:07:48;10.25;;;4.40;;
72404;SDS011;60395;52.020;113.548;2022-08-04T15:10:51;10.83;;;4.07;;
72404;SDS011;60395;52.020;113.548;2022-08-04T15:14:00;7.50;;;3.83;;
72404;SDS011;60395;52.020;113.548;2022-08-04T15:17:04;10.13;;;3.78;;
72404;SDS011;60395;52.020;113.548;2022-08-04T15:20:27;7.30;;;4.03;;
72404;SDS011;60395;52.020;113.548;2022-08-04T15:23:31;10.07;;;4.05;;
72404;SDS011;60395;52.020;113.548;2022-08-04T15:26:41;10.57;;;4.20;;
72404;SDS011;60395;52.020;113.548;2022-08-04T15:29:48;10.13;;;4.35;;
72404;SDS011;60395;52.020;113.548;2022-08-04T15:33:01;14.88;;;4.60;;
72404;SDS011;60395;52.020;113.548;2022-08-04T15:40:21;13.02;;;5.25;;
72404;SDS011;60395;52.020;113.548;2022-08-04T15:50:11;10.95;;;4.28;;
72404;SDS011;60395;52.020;113.548;2022-08-04T15:53:30;11.57;;;5.10;;
72404;SDS011;60395;52.020;113.548;2022-08-04T15:57:05;9.43;;;4.70;;
72404;SDS011;60395;52.020;113.548;2022-08-04T16:00:09;16.27;;;6.57;;
72404;SDS011;60395;52.020;113.548;2022-08-04T16:07:03;9.40;;;4.00;;
72404;SDS011;60395;52.020;113.548;2022-08-04T16:13:31;6.90;;;4.00;;
72404;SDS011;60395;52.020;113.548;2022-08-04T16:19:45;8.80;;;3.90;;
72404;SDS011;60395;52.020;113.548;2022-08-04T16:22:56;9.80;;;3.90;;
72404;SDS011;60395;52.020;113.548;2022-08-04T16:26:14;9.52;;;3.95;;
72404;SDS011;60395;52.020;113.548;2022-08-04T16:29:46;8.48;;;3.80;;
72404;SDS011;60395;52.020;113.548;2022-08-04T16:32:49;12.50;;;3.90;;
72404;SDS011;60395;52.020;113.548;2022-08-04T16:35:57;7.65;;;3.88;;
72404;SDS011;60395;52.020;113.548;2022-08-04T16:39:16;10.35;;;4.35;;
72404;SDS011;60395;52.020;113.548;2022-08-04T16:49:20;8.90;;;3.80;;
72404;SDS011;60395;52.020;113.548;2022-08-04T16:52:24;9.90;;;3.35;;
72404;SDS011;60395;52.020;113.548;2022-08-04T16:55:27;6.68;;;3.00;;
72404;SDS011;60395;52.020;113.548;2022-08-04T16:58:32;6.90;;;2.92;;
72404;SDS011;60395;52.020;113.548;2022-08-04T17:01:47;6.43;;;2.88;;
72404;SDS011;60395;52.020;113.548;2022-08-04T17:04:51;6.40;;;2.72;;
72404;SDS011;60395;52.020;113.548;2022-08-04T17:08:08;6.25;;;2.90;;
72404;SDS011;60395;52.020;113.548;2022-08-04T17:11:31;7.28;;;3.08;;
72404;SDS011;60395;52.020;113.548;2022-08-04T17:14:34;6.25;;;2.65;;
72404;SDS011;60395;52.020;113.548;2022-08-04T17:17:37;4.90;;;2.58;;
72404;SDS011;60395;52.020;113.548;2022-08-04T17:21:02;4.35;;;2.22;;
72404;SDS011;60395;52.020;113.548;2022-08-04T17:24:07;6.15;;;2.95;;
72404;SDS011;60395;52.020;113.548;2022-08-04T17:27:18;5.68;;;2.50;;
72404;SDS011;60395;52.020;113.548;2022-08-04T17:30:41;4.57;;;2.90;;
72404;SDS011;60395;52.020;113.548;2022-08-04T17:33:53;5.85;;;2.75;;
72404;SDS011;60395;52.020;113.548;2022-08-04T17:37:01;6.00;;;2.78;;
72404;SDS011;60395;52.020;113.548;2022-08-04T17:40:24;5.32;;;2.63;;
72404;SDS011;60395;52.020;113.548;2022-08-04T17:43:40;12.93;;;2.88;;
72404;SDS011;60395;52.020;113.548;2022-08-04T17:47:06;5.25;;;2.50;;
72404;SDS011;60395;52.020;113.548;2022-08-04T17:50:29;4.20;;;2.45;;
72404;SDS011;60395;52.020;113.548;2022-08-04T17:53:36;7.03;;;3.75;;
72404;SDS011;60395;52.020;113.548;2022-08-04T17:57:00;6.10;;;2.95;;
72404;SDS011;60395;52.020;113.548;2022-08-04T18:00:15;6.25;;;2.97;;
72404;SDS011;60395;52.020;113.548;2022-08-04T18:03:21;4.03;;;2.28;;
72404;SDS011;60395;52.020;113.548;2022-08-04T18:06:30;7.00;;;2.45;;
72404;SDS011;60395;52.020;113.548;2022-08-04T18:09:36;4.43;;;2.97;;
72404;SDS011;60395;52.020;113.548;2022-08-04T18:13:05;4.53;;;2.80;;
72404;SDS011;60395;52.020;113.548;2022-08-04T18:16:15;5.78;;;2.80;;
72404;SDS011;60395;52.020;113.548;2022-08-04T18:19:23;5.80;;;2.30;;
72404;SDS011;60395;52.020;113.548;2022-08-04T18:22:32;4.00;;;2.78;;
72404;SDS011;60395;52.020;113.548;2022-08-04T18:25:35;5.68;;;2.97;;
72404;SDS011;60395;52.020;113.548;2022-08-04T18:28:59;4.80;;;2.47;;
72404;SDS011;60395;52.020;113.548;2022-08-04T18:32:06;7.70;;;2.72;;
72404;SDS011;60395;52.020;113.548;2022-08-04T18:35:09;6.72;;;2.70;;
72404;SDS011;60395;52.020;113.548;2022-08-04T18:38:17;6.22;;;2.75;;
72404;SDS011;60395;52.020;113.548;2022-08-04T18:41:25;4.18;;;2.67;;
72404;SDS011;60395;52.020;113.548;2022-08-04T18:44:49;7.60;;;3.10;;
72404;SDS011;60395;52.020;113.548;2022-08-04T18:47:54;5.18;;;2.38;;
72404;SDS011;60395;52.020;113.548;2022-08-04T18:51:17;5.82;;;2.75;;
72404;SDS011;60395;52.020;113.548;2022-08-04T18:54:25;4.55;;;2.53;;
72404;SDS011;60395;52.020;113.548;2022-08-04T18:57:32;5.18;;;2.67;;
72404;SDS011;60395;52.020;113.548;2022-08-04T19:00:55;8.00;;;2.60;;
72404;SDS011;60395;52.020;113.548;2022-08-04T19:04:01;3.42;;;2.50;;
72404;SDS011;60395;52.020;113.548;2022-08-04T19:07:24;6.00;;;2.70;;
72404;SDS011;60395;52.020;113.548;2022-08-04T19:10:31;6.88;;;2.60;;
72404;SDS011;60395;52.020;113.548;2022-08-04T19:13:35;5.35;;;2.70;;
72404;SDS011;60395;52.020;113.548;2022-08-04T19:16:38;3.40;;;2.28;;
72404;SDS011;60395;52.020;113.548;2022-08-04T19:19:46;3.58;;;2.50;;
72404;SDS011;60395;52.020;113.548;2022-08-04T19:22:50;4.95;;;2.67;;
72404;SDS011;60395;52.020;113.548;2022-08-04T19:26:13;4.55;;;2.28;;
72404;SDS011;60395;52.020;113.548;2022-08-04T19:29:29;3.30;;;2.30;;
72404;SDS011;60395;52.020;113.548;2022-08-04T19:32:41;5.32;;;2.80;;
72404;SDS011;60395;52.020;113.548;2022-08-04T19:35:49;5.68;;;2.58;;
72404;SDS011;60395;52.020;113.548;2022-08-04T19:38:52;4.80;;;2.78;;
72404;SDS011;60395;52.020;113.548;2022-08-04T19:41:56;4.15;;;2.50;;
72404;SDS011;60395;52.020;113.548;2022-08-04T19:45:07;4.13;;;2.67;;
72404;SDS011;60395;52.020;113.548;2022-08-04T19:48:16;4.05;;;2.25;;
72404;SDS011;60395;52.020;113.548;2022-08-04T19:51:21;4.53;;;2.50;;
72404;SDS011;60395;52.020;113.548;2022-08-04T19:54:28;8.02;;;2.53;;
72404;SDS011;60395;52.020;113.548;2022-08-04T19:57:31;5.85;;;2.60;;
72404;SDS011;60395;52.020;113.548;2022-08-04T20:00:37;6.00;;;2.50;;
72404;SDS011;60395;52.020;113.548;2022-08-04T20:03:52;7.10;;;2.40;;
72404;SDS011;60395;52.020;113.548;2022-08-04T20:07:15;12.90;;;3.83;;
72404;SDS011;60395;52.020;113.548;2022-08-04T20:10:19;3.93;;;2.60;;
72404;SDS011;60395;52.020;113.548;2022-08-04T20:13:24;4.90;;;2.85;;
72404;SDS011;60395;52.020;113.548;2022-08-04T20:16:49;6.37;;;2.63;;
72404;SDS011;60395;52.020;113.548;2022-08-04T20:19:52;7.47;;;2.88;;
72404;SDS011;60395;52.020;113.548;2022-08-04T20:22:55;4.88;;;2.55;;
72404;SDS011;60395;52.020;113.548;2022-08-04T20:25:59;6.55;;;2.45;;
72404;SDS011;60395;52.020;113.548;2022-08-04T20:29:02;3.75;;;2.28;;
72404;SDS011;60395;52.020;113.548;2022-08-04T20:32:07;7.10;;;2.35;;
72404;SDS011;60395;52.020;113.548;2022-08-04T20:35:11;4.00;;;2.47;;
72404;SDS011;60395;52.020;113.548;2022-08-04T20:38:17;3.35;;;2.25;;
72404;SDS011;60395;52.020;113.548;2022-08-04T20:41:35;4.50;;;2.60;;
72404;SDS011;60395;52.020;113.548;2022-08-04T20:44:38;3.80;;;2.35;;
72404;SDS011;60395;52.020;113.548;2022-08-04T20:47:43;8.75;;;2.70;;
72404;SDS011;60395;52.020;113.548;2022-08-04T20:50:55;6.20;;;2.78;;
72404;SDS011;60395;52.020;113.548;2022-08-04T20:53:58;5.88;;;2.40;;
72404;SDS011;60395;52.020;113.548;2022-08-04T20:57:01;6.25;;;2.50;;
72404;SDS011;60395;52.020;113.548;2022-08-04T21:00:05;7.22;;;2.50;;
72404;SDS011;60395;52.020;113.548;2022-08-04T21:03:14;3.42;;;2.35;;
72404;SDS011;60395;52.020;113.548;2022-08-04T21:06:17;7.20;;;2.63;;
72404;SDS011;60395;52.020;113.548;2022-08-04T21:09:21;5.53;;;2.40;;
72404;SDS011;60395;52.020;113.548;2022-08-04T21:12:43;4.82;;;2.60;;
72404;SDS011;60395;52.020;113.548;2022-08-04T21:15:50;7.43;;;2.97;;
72404;SDS011;60395;52.020;113.548;2022-08-04T21:19:00;4.63;;;2.53;;
72404;SDS011;60395;52.020;113.548;2022-08-04T21:22:05;5.35;;;2.72;;
72404;SDS011;60395;52.020;113.548;2022-08-04T21:25:11;5.75;;;2.45;;
72404;SDS011;60395;52.020;113.548;2022-08-04T21:28:17;6.80;;;2.72;;
72404;SDS011;60395;52.020;113.548;2022-08-04T21:31:21;6.88;;;3.35;;
72404;SDS011;60395;52.020;113.548;2022-08-04T21:34:26;7.20;;;3.08;;
72404;SDS011;60395;52.020;113.548;2022-08-04T21:37:42;6.78;;;3.50;;
72404;SDS011;60395;52.020;113.548;2022-08-04T21:41:01;7.00;;;3.08;;
72404;SDS011;60395;52.020;113.548;2022-08-04T21:47:10;8.63;;;3.80;;
72404;SDS011;60395;52.020;113.548;2022-08-04T21:50:35;10.87;;;4.20;;
72404;SDS011;60395;52.020;113.548;2022-08-04T21:53:40;14.90;;;6.20;;
72404;SDS011;60395;52.020;113.548;2022-08-04T21:56:43;9.73;;;5.35;;
72404;SDS011;60395;52.020;113.548;2022-08-04T21:59:52;6.30;;;3.75;;
72404;SDS011;60395;52.020;113.548;2022-08-04T22:02:55;10.05;;;5.60;;
72404;SDS011;60395;52.020;113.548;2022-08-04T22:05:58;8.88;;;4.70;;
72404;SDS011;60395;52.020;113.548;2022-08-04T22:09:02;12.52;;;5.18;;
72404;SDS011;60395;52.020;113.548;2022-08-04T22:12:15;11.38;;;4.90;;
72404;SDS011;60395;52.020;113.548;2022-08-04T22:15:22;9.52;;;5.10;;
72404;SDS011;60395;52.020;113.548;2022-08-04T22:18:45;7.63;;;4.28;;
72404;SDS011;60395;52.020;113.548;2022-08-04T22:21:49;11.93;;;4.17;;
72404;SDS011;60395;52.020;113.548;2022-08-04T22:24:53;6.82;;;3.80;;
72404;SDS011;60395;52.020;113.548;2022-08-04T22:27:59;7.70;;;3.40;;
72404;SDS011;60395;52.020;113.548;2022-08-04T22:31:09;7.28;;;3.50;;
72404;SDS011;60395;52.020;113.548;2022-08-04T22:34:25;9.13;;;3.47;;
72404;SDS011;60395;52.020;113.548;2022-08-04T22:37:31;10.18;;;3.70;;
72404;SDS011;60395;52.020;113.548;2022-08-04T22:40:45;10.55;;;3.60;;
72404;SDS011;60395;52.020;113.548;2022-08-04T22:43:51;10.38;;;4.13;;
72404;SDS011;60395;52.020;113.548;2022-08-04T22:49:59;9.65;;;3.00;;